Marche Airport

METAR LIPY TAF LIPY
12 °C
°C
-
°C
15m
Age
12:05:03
LT
11:05
UTC
0 ft

1,000

2,000

3,000

4,000

5,000

VFR
<?= Yii::t('app', 'Wind direction') ?> <?= Yii::t('app', 'of'); ?>
020°
17:18
Sunset
63%
Humidity
Wind shear
Closed/Snow
RWY visual range
RWY condition
Vert. visibility
Min. visibility
CAVOK
Trend
Correction
Special report
1022 hPa
QNH
METAR LIPY 021050Z AUTO 02006KT 9999 NCD 12/05 Q1022
Clear
1 kt
1 kt
12:00
VFR
10 kt
13:00
VFR
10 kt
14:00
VFR
10 kt
15:00
VFR
10 kt
16:00
VFR
10 kt
17:00
VFR
10 kt
18:00
VFR
10 kt
10 km+
Visibility
None
Ceiling
6 kt
Wind
metar-taf.com/LIPY

Metar-Taf.com

Visual decoder

We and third parties follow your internet behavior on our website with cookies. If you continue, we assume you agree with our cookie policy.